sensor_id;sensor_type;location;lat;lon;timestamp;pressure;altitude;pressure_sealevel;temperature;humidity
19827;BME280;10074;52.018;4.726;2022-11-15T00:04:38;46463.88;;;-144.79;100.00
19827;BME280;10074;52.018;4.726;2022-11-15T00:09:39;46475.91;;;-144.79;100.00
19827;BME280;10074;52.018;4.726;2022-11-15T00:14:39;46471.91;;;-144.79;100.00
19827;BME280;10074;52.018;4.726;2022-11-15T00:19:40;46471.91;;;-144.79;100.00
19827;BME280;10074;52.018;4.726;2022-11-15T00:24:40;46473.91;;;-144.79;100.00
19827;BME280;10074;52.018;4.726;2022-11-15T00:29:41;46463.88;;;-144.79;100.00
19827;BME280;10074;52.018;4.726;2022-11-15T00:34:43;46475.91;;;-144.79;100.00
19827;BME280;10074;52.018;4.726;2022-11-15T00:39:43;46469.88;;;-144.79;100.00
19827;BME280;10074;52.018;4.726;2022-11-15T00:44:43;46469.88;;;-144.79;100.00
19827;BME280;10074;52.018;4.726;2022-11-15T00:49:44;46471.91;;;-144.79;100.00
19827;BME280;10074;52.018;4.726;2022-11-15T00:54:44;46477.91;;;-144.79;100.00
19827;BME280;10074;52.018;4.726;2022-11-15T00:59:44;46463.88;;;-144.79;100.00
19827;BME280;10074;52.018;4.726;2022-11-15T01:04:45;46467.88;;;-144.79;100.00
19827;BME280;10074;52.018;4.726;2022-11-15T01:09:45;46471.91;;;-144.79;100.00
19827;BME280;10074;52.018;4.726;2022-11-15T01:14:45;46471.91;;;-144.79;100.00
19827;BME280;10074;52.018;4.726;2022-11-15T01:19:46;46471.91;;;-144.79;100.00
19827;BME280;10074;52.018;4.726;2022-11-15T01:24:46;46471.91;;;-144.79;100.00
19827;BME280;10074;52.018;4.726;2022-11-15T01:29:47;46471.91;;;-144.79;100.00
19827;BME280;10074;52.018;4.726;2022-11-15T01:34:47;46467.88;;;-144.79;100.00
19827;BME280;10074;52.018;4.726;2022-11-15T01:39:48;46467.88;;;-144.79;100.00
19827;BME280;10074;52.018;4.726;2022-11-15T01:44:52;46469.88;;;-144.79;100.00
19827;BME280;10074;52.018;4.726;2022-11-15T01:55:08;46471.91;;;-144.79;100.00
19827;BME280;10074;52.018;4.726;2022-11-15T02:00:10;46469.88;;;-144.79;100.00
19827;BME280;10074;52.018;4.726;2022-11-15T02:05:10;46469.88;;;-144.79;100.00
19827;BME280;10074;52.018;4.726;2022-11-15T02:10:17;46467.88;;;-144.79;100.00
19827;BME280;10074;52.018;4.726;2022-11-15T02:15:17;46467.88;;;-144.79;100.00
19827;BME280;10074;52.018;4.726;2022-11-15T02:20:48;46467.88;;;-144.79;100.00
19827;BME280;10074;52.018;4.726;2022-11-15T02:31:41;46467.88;;;-144.79;100.00
19827;BME280;10074;52.018;4.726;2022-11-15T02:42:24;46471.91;;;-144.79;100.00
19827;BME280;10074;52.018;4.726;2022-11-15T02:47:46;46469.88;;;-144.79;100.00
19827;BME280;10074;52.018;4.726;2022-11-15T02:52:48;46467.88;;;-144.79;100.00
19827;BME280;10074;52.018;4.726;2022-11-15T02:58:10;46467.88;;;-144.79;100.00
19827;BME280;10074;52.018;4.726;2022-11-15T03:09:27;46469.88;;;-144.79;100.00
19827;BME280;10074;52.018;4.726;2022-11-15T03:14:34;46469.88;;;-144.79;100.00
19827;BME280;10074;52.018;4.726;2022-11-15T03:24:37;46469.88;;;-144.79;100.00
19827;BME280;10074;52.018;4.726;2022-11-15T03:29:45;46469.88;;;-144.79;100.00
19827;BME280;10074;52.018;4.726;2022-11-15T03:35:08;46469.88;;;-144.79;100.00
19827;BME280;10074;52.018;4.726;2022-11-15T03:40:10;46471.91;;;-144.79;100.00
19827;BME280;10074;52.018;4.726;2022-11-15T03:45:18;46467.88;;;-144.79;100.00
19827;BME280;10074;52.018;4.726;2022-11-15T03:50:20;46473.91;;;-144.79;100.00
19827;BME280;10074;52.018;4.726;2022-11-15T03:55:22;46467.88;;;-144.79;100.00
19827;BME280;10074;52.018;4.726;2022-11-15T04:00:22;46469.88;;;-144.79;100.00
19827;BME280;10074;52.018;4.726;2022-11-15T04:05:23;46469.88;;;-144.79;100.00
19827;BME280;10074;52.018;4.726;2022-11-15T04:10:23;46465.88;;;-144.79;100.00
19827;BME280;10074;52.018;4.726;2022-11-15T04:15:24;46471.91;;;-144.79;100.00
19827;BME280;10074;52.018;4.726;2022-11-15T04:20:30;46469.88;;;-144.79;100.00
19827;BME280;10074;52.018;4.726;2022-11-15T04:25:51;46467.88;;;-144.79;100.00
19827;BME280;10074;52.018;4.726;2022-11-15T04:30:52;46467.88;;;-144.79;100.00
19827;BME280;10074;52.018;4.726;2022-11-15T04:35:53;46467.88;;;-144.79;100.00
19827;BME280;10074;52.018;4.726;2022-11-15T04:41:12;46471.91;;;-144.79;100.00
19827;BME280;10074;52.018;4.726;2022-11-15T04:46:12;46469.88;;;-144.79;100.00
19827;BME280;10074;52.018;4.726;2022-11-15T04:51:12;46467.88;;;-144.79;100.00
19827;BME280;10074;52.018;4.726;2022-11-15T04:56:13;46475.91;;;-144.79;100.00
19827;BME280;10074;52.018;4.726;2022-11-15T05:01:14;46471.91;;;-144.79;100.00
19827;BME280;10074;52.018;4.726;2022-11-15T05:06:14;46467.88;;;-144.79;100.00
19827;BME280;10074;52.018;4.726;2022-11-15T05:11:15;46471.91;;;-144.79;100.00
19827;BME280;10074;52.018;4.726;2022-11-15T05:16:15;46471.91;;;-144.79;100.00
19827;BME280;10074;52.018;4.726;2022-11-15T05:21:16;46467.88;;;-144.79;100.00
19827;BME280;10074;52.018;4.726;2022-11-15T05:26:17;46471.91;;;-144.79;100.00
19827;BME280;10074;52.018;4.726;2022-11-15T05:31:18;46467.88;;;-144.79;100.00
19827;BME280;10074;52.018;4.726;2022-11-15T05:36:31;46469.88;;;-144.79;100.00
19827;BME280;10074;52.018;4.726;2022-11-15T05:41:52;46469.88;;;-144.79;100.00
19827;BME280;10074;52.018;4.726;2022-11-15T05:46:56;46469.88;;;-144.79;100.00
19827;BME280;10074;52.018;4.726;2022-11-15T05:51:57;46467.88;;;-144.79;100.00
19827;BME280;10074;52.018;4.726;2022-11-15T05:56:59;46471.91;;;-144.79;100.00
19827;BME280;10074;52.018;4.726;2022-11-15T06:02:00;46467.88;;;-144.79;100.00
19827;BME280;10074;52.018;4.726;2022-11-15T06:07:00;46467.88;;;-144.79;100.00
19827;BME280;10074;52.018;4.726;2022-11-15T06:12:01;46467.88;;;-144.79;100.00
19827;BME280;10074;52.018;4.726;2022-11-15T06:17:01;46467.88;;;-144.79;100.00
19827;BME280;10074;52.018;4.726;2022-11-15T06:22:02;46463.88;;;-144.79;100.00
19827;BME280;10074;52.018;4.726;2022-11-15T06:27:03;46469.88;;;-144.79;100.00
19827;BME280;10074;52.018;4.726;2022-11-15T06:32:03;46467.88;;;-144.79;100.00
19827;BME280;10074;52.018;4.726;2022-11-15T06:37:04;46473.91;;;-144.79;100.00
19827;BME280;10074;52.018;4.726;2022-11-15T06:42:04;46467.88;;;-144.79;100.00
19827;BME280;10074;52.018;4.726;2022-11-15T06:47:05;46465.88;;;-144.79;100.00
19827;BME280;10074;52.018;4.726;2022-11-15T06:52:05;46471.91;;;-144.79;100.00
19827;BME280;10074;52.018;4.726;2022-11-15T06:57:06;46467.88;;;-144.79;100.00
19827;BME280;10074;52.018;4.726;2022-11-15T07:02:12;46467.88;;;-144.79;100.00
19827;BME280;10074;52.018;4.726;2022-11-15T07:07:12;46471.91;;;-144.79;100.00
19827;BME280;10074;52.018;4.726;2022-11-15T07:12:13;46467.88;;;-144.79;100.00
19827;BME280;10074;52.018;4.726;2022-11-15T07:17:13;46471.91;;;-144.79;100.00
19827;BME280;10074;52.018;4.726;2022-11-15T07:22:13;46467.88;;;-144.79;100.00
19827;BME280;10074;52.018;4.726;2022-11-15T07:27:14;46469.88;;;-144.79;100.00
19827;BME280;10074;52.018;4.726;2022-11-15T07:32:14;46471.91;;;-144.79;100.00
19827;BME280;10074;52.018;4.726;2022-11-15T07:37:14;46467.88;;;-144.79;100.00
19827;BME280;10074;52.018;4.726;2022-11-15T07:42:14;46471.91;;;-144.79;100.00
19827;BME280;10074;52.018;4.726;2022-11-15T07:47:34;46465.88;;;-144.79;100.00
19827;BME280;10074;52.018;4.726;2022-11-15T07:52:34;46473.91;;;-144.79;100.00
19827;BME280;10074;52.018;4.726;2022-11-15T07:57:35;46465.88;;;-144.79;100.00
19827;BME280;10074;52.018;4.726;2022-11-15T08:02:35;46467.88;;;-144.79;100.00
19827;BME280;10074;52.018;4.726;2022-11-15T08:07:35;46469.88;;;-144.79;100.00
19827;BME280;10074;52.018;4.726;2022-11-15T08:12:38;46469.88;;;-144.79;100.00
19827;BME280;10074;52.018;4.726;2022-11-15T08:17:38;46471.91;;;-144.79;100.00
19827;BME280;10074;52.018;4.726;2022-11-15T08:22:38;46471.91;;;-144.79;100.00
19827;BME280;10074;52.018;4.726;2022-11-15T08:27:38;46473.91;;;-144.79;100.00
19827;BME280;10074;52.018;4.726;2022-11-15T08:32:39;46471.91;;;-144.79;100.00
19827;BME280;10074;52.018;4.726;2022-11-15T08:37:39;46471.91;;;-144.79;100.00
19827;BME280;10074;52.018;4.726;2022-11-15T08:42:40;46467.88;;;-144.79;100.00
19827;BME280;10074;52.018;4.726;2022-11-15T08:47:40;46475.91;;;-144.79;100.00
19827;BME280;10074;52.018;4.726;2022-11-15T08:52:40;46471.91;;;-144.79;100.00
19827;BME280;10074;52.018;4.726;2022-11-15T08:57:41;46471.91;;;-144.79;100.00
19827;BME280;10074;52.018;4.726;2022-11-15T09:02:41;46467.88;;;-144.79;100.00
19827;BME280;10074;52.018;4.726;2022-11-15T09:07:42;46467.88;;;-144.79;100.00
19827;BME280;10074;52.018;4.726;2022-11-15T09:12:42;46469.88;;;-144.79;100.00
19827;BME280;10074;52.018;4.726;2022-11-15T09:17:43;46469.88;;;-144.79;100.00
19827;BME280;10074;52.018;4.726;2022-11-15T09:22:43;46467.88;;;-144.79;100.00
19827;BME280;10074;52.018;4.726;2022-11-15T09:27:44;46467.88;;;-144.79;100.00
19827;BME280;10074;52.018;4.726;2022-11-15T09:32:44;46469.88;;;-144.79;100.00
19827;BME280;10074;52.018;4.726;2022-11-15T09:37:44;46469.88;;;-144.79;100.00
19827;BME280;10074;52.018;4.726;2022-11-15T09:43:22;46471.91;;;-144.79;100.00
19827;BME280;10074;52.018;4.726;2022-11-15T09:53:52;46475.91;;;-144.79;100.00
19827;BME280;10074;52.018;4.726;2022-11-15T10:04:44;46313.50;;;-144.79;100.00
19827;BME280;10074;52.018;4.726;2022-11-15T10:09:53;46269.38;;;-144.79;100.00
19827;BME280;10074;52.018;4.726;2022-11-15T10:15:01;46299.47;;;-144.79;100.00
19827;BME280;10074;52.018;4.726;2022-11-15T10:20:29;46337.56;;;-144.79;100.00
19827;BME280;10074;52.018;4.726;2022-11-15T10:25:32;46419.75;;;-144.79;100.00
19827;BME280;10074;52.018;4.726;2022-11-15T10:30:42;46431.78;;;-144.79;100.00
19827;BME280;10074;52.018;4.726;2022-11-15T10:35:42;46431.78;;;-144.79;100.00
19827;BME280;10074;52.018;4.726;2022-11-15T10:40:45;46425.78;;;-144.79;100.00
19827;BME280;10074;52.018;4.726;2022-11-15T10:45:46;46411.75;;;-144.79;100.00
19827;BME280;10074;52.018;4.726;2022-11-15T10:50:47;46411.75;;;-144.79;100.00
19827;BME280;10074;52.018;4.726;2022-11-15T10:55:51;46417.75;;;-144.79;100.00
19827;BME280;10074;52.018;4.726;2022-11-15T11:00:53;46427.78;;;-144.79;100.00
19827;BME280;10074;52.018;4.726;2022-11-15T11:06:09;46443.81;;;-144.79;100.00
19827;BME280;10074;52.018;4.726;2022-11-15T11:11:09;46451.84;;;-144.79;100.00
19827;BME280;10074;52.018;4.726;2022-11-15T11:21:17;46455.84;;;-144.79;100.00
19827;BME280;10074;52.018;4.726;2022-11-15T11:26:42;46445.84;;;-144.79;100.00
19827;BME280;10074;52.018;4.726;2022-11-15T11:32:02;46445.84;;;-144.79;100.00
19827;BME280;10074;52.018;4.726;2022-11-15T11:37:31;46431.78;;;-144.79;100.00
19827;BME280;10074;52.018;4.726;2022-11-15T11:43:08;46431.78;;;-144.79;100.00
19827;BME280;10074;52.018;4.726;2022-11-15T11:48:17;46433.81;;;-144.79;100.00
19827;BME280;10074;52.018;4.726;2022-11-15T11:53:39;46443.81;;;-144.79;100.00
19827;BME280;10074;52.018;4.726;2022-11-15T11:58:43;46445.84;;;-144.79;100.00
19827;BME280;10074;52.018;4.726;2022-11-15T12:03:49;46447.84;;;-144.79;100.00
19827;BME280;10074;52.018;4.726;2022-11-15T12:14:45;46429.78;;;-144.79;100.00
19827;BME280;10074;52.018;4.726;2022-11-15T12:19:47;46435.81;;;-144.79;100.00
19827;BME280;10074;52.018;4.726;2022-11-15T12:24:53;46439.81;;;-144.79;100.00
19827;BME280;10074;52.018;4.726;2022-11-15T12:29:59;46441.81;;;-144.79;100.00
19827;BME280;10074;52.018;4.726;2022-11-15T12:35:03;46445.84;;;-144.79;100.00
19827;BME280;10074;52.018;4.726;2022-11-15T12:40:29;46441.81;;;-144.79;100.00
19827;BME280;10074;52.018;4.726;2022-11-15T12:45:35;46435.81;;;-144.79;100.00
19827;BME280;10074;52.018;4.726;2022-11-15T12:50:53;46445.84;;;-144.79;100.00
19827;BME280;10074;52.018;4.726;2022-11-15T13:01:03;46459.88;;;-144.79;100.00
19827;BME280;10074;52.018;4.726;2022-11-15T13:06:05;46461.88;;;-144.79;100.00
19827;BME280;10074;52.018;4.726;2022-11-15T13:16:43;46455.84;;;-144.79;100.00
19827;BME280;10074;52.018;4.726;2022-11-15T13:21:49;46463.88;;;-144.79;100.00
19827;BME280;10074;52.018;4.726;2022-11-15T13:27:15;46457.88;;;-144.79;100.00
19827;BME280;10074;52.018;4.726;2022-11-15T13:32:18;46455.84;;;-144.79;100.00
19827;BME280;10074;52.018;4.726;2022-11-15T13:42:21;46461.88;;;-144.79;100.00
19827;BME280;10074;52.018;4.726;2022-11-15T13:47:21;46449.84;;;-144.79;100.00
19827;BME280;10074;52.018;4.726;2022-11-15T13:52:22;46443.81;;;-144.79;100.00
19827;BME280;10074;52.018;4.726;2022-11-15T13:57:29;46435.81;;;-144.79;100.00
19827;BME280;10074;52.018;4.726;2022-11-15T14:02:32;46445.84;;;-144.79;100.00
19827;BME280;10074;52.018;4.726;2022-11-15T14:07:34;46433.81;;;-144.79;100.00
19827;BME280;10074;52.018;4.726;2022-11-15T14:12:36;46429.78;;;-144.79;100.00
19827;BME280;10074;52.018;4.726;2022-11-15T14:17:38;46413.75;;;-144.79;100.00
19827;BME280;10074;52.018;4.726;2022-11-15T14:22:51;46429.78;;;-144.79;100.00
19827;BME280;10074;52.018;4.726;2022-11-15T14:28:14;46403.72;;;-144.79;100.00
19827;BME280;10074;52.018;4.726;2022-11-15T14:38:31;46407.72;;;-144.79;100.00
19827;BME280;10074;52.018;4.726;2022-11-15T14:43:31;46405.72;;;-144.79;100.00
19827;BME280;10074;52.018;4.726;2022-11-15T14:48:31;46425.78;;;-144.79;100.00
19827;BME280;10074;52.018;4.726;2022-11-15T14:53:32;46415.75;;;-144.79;100.00
19827;BME280;10074;52.018;4.726;2022-11-15T14:58:32;46405.72;;;-144.79;100.00
19827;BME280;10074;52.018;4.726;2022-11-15T15:03:32;46423.78;;;-144.79;100.00
19827;BME280;10074;52.018;4.726;2022-11-15T15:08:33;46413.75;;;-144.79;100.00
19827;BME280;10074;52.018;4.726;2022-11-15T15:13:33;46411.75;;;-144.79;100.00
19827;BME280;10074;52.018;4.726;2022-11-15T15:18:33;46393.69;;;-144.79;100.00
19827;BME280;10074;52.018;4.726;2022-11-15T15:23:34;46393.69;;;-144.79;100.00
19827;BME280;10074;52.018;4.726;2022-11-15T15:28:35;46395.69;;;-144.79;100.00
19827;BME280;10074;52.018;4.726;2022-11-15T15:33:36;46391.69;;;-144.79;100.00
19827;BME280;10074;52.018;4.726;2022-11-15T15:38:39;46403.72;;;-144.79;100.00
19827;BME280;10074;52.018;4.726;2022-11-15T15:43:42;46393.69;;;-144.79;100.00
19827;BME280;10074;52.018;4.726;2022-11-15T15:48:43;46417.75;;;-144.79;100.00
19827;BME280;10074;52.018;4.726;2022-11-15T15:53:43;46423.78;;;-144.79;100.00
19827;BME280;10074;52.018;4.726;2022-11-15T15:58:44;46425.78;;;-144.79;100.00
19827;BME280;10074;52.018;4.726;2022-11-15T16:03:44;46429.78;;;-144.79;100.00
19827;BME280;10074;52.018;4.726;2022-11-15T16:08:44;46425.78;;;-144.79;100.00
19827;BME280;10074;52.018;4.726;2022-11-15T16:13:45;46435.81;;;-144.79;100.00
19827;BME280;10074;52.018;4.726;2022-11-15T16:18:45;46447.84;;;-144.79;100.00
19827;BME280;10074;52.018;4.726;2022-11-15T16:23:45;46451.84;;;-144.79;100.00
19827;BME280;10074;52.018;4.726;2022-11-15T16:28:46;46447.84;;;-144.79;100.00
19827;BME280;10074;52.018;4.726;2022-11-15T16:33:46;46455.84;;;-144.79;100.00
19827;BME280;10074;52.018;4.726;2022-11-15T16:38:47;46455.84;;;-144.79;100.00
19827;BME280;10074;52.018;4.726;2022-11-15T16:43:48;46455.84;;;-144.79;100.00
19827;BME280;10074;52.018;4.726;2022-11-15T16:48:56;46455.84;;;-144.79;100.00
19827;BME280;10074;52.018;4.726;2022-11-15T16:53:58;46455.84;;;-144.79;100.00
19827;BME280;10074;52.018;4.726;2022-11-15T16:59:00;46453.84;;;-144.79;100.00
19827;BME280;10074;52.018;4.726;2022-11-15T17:04:01;46453.84;;;-144.79;100.00
19827;BME280;10074;52.018;4.726;2022-11-15T17:09:17;46453.84;;;-144.79;100.00
19827;BME280;10074;52.018;4.726;2022-11-15T17:14:17;46453.84;;;-144.79;100.00
19827;BME280;10074;52.018;4.726;2022-11-15T17:19:19;46459.88;;;-144.79;100.00
19827;BME280;10074;52.018;4.726;2022-11-15T17:24:20;46459.88;;;-144.79;100.00
19827;BME280;10074;52.018;4.726;2022-11-15T17:29:20;46461.88;;;-144.79;100.00
19827;BME280;10074;52.018;4.726;2022-11-15T17:34:20;46459.88;;;-144.79;100.00
19827;BME280;10074;52.018;4.726;2022-11-15T17:39:21;46459.88;;;-144.79;100.00
19827;BME280;10074;52.018;4.726;2022-11-15T17:44:22;46461.88;;;-144.79;100.00
19827;BME280;10074;52.018;4.726;2022-11-15T17:49:23;46463.88;;;-144.79;100.00
19827;BME280;10074;52.018;4.726;2022-11-15T17:54:23;46467.88;;;-144.79;100.00
19827;BME280;10074;52.018;4.726;2022-11-15T17:59:23;46469.88;;;-144.79;100.00
19827;BME280;10074;52.018;4.726;2022-11-15T18:04:24;46467.88;;;-144.79;100.00
19827;BME280;10074;52.018;4.726;2022-11-15T18:09:27;46467.88;;;-144.79;100.00
19827;BME280;10074;52.018;4.726;2022-11-15T18:14:27;46471.91;;;-144.79;100.00
19827;BME280;10074;52.018;4.726;2022-11-15T18:19:29;46465.88;;;-144.79;100.00
19827;BME280;10074;52.018;4.726;2022-11-15T18:24:30;46467.88;;;-144.79;100.00
19827;BME280;10074;52.018;4.726;2022-11-15T18:29:31;46467.88;;;-144.79;100.00
19827;BME280;10074;52.018;4.726;2022-11-15T18:34:33;46469.88;;;-144.79;100.00
19827;BME280;10074;52.018;4.726;2022-11-15T18:39:34;46471.91;;;-144.79;100.00
19827;BME280;10074;52.018;4.726;2022-11-15T18:44:34;46473.91;;;-144.79;100.00
19827;BME280;10074;52.018;4.726;2022-11-15T18:49:35;46471.91;;;-144.79;100.00
19827;BME280;10074;52.018;4.726;2022-11-15T18:54:35;46471.91;;;-144.79;100.00
19827;BME280;10074;52.018;4.726;2022-11-15T18:59:35;46467.88;;;-144.79;100.00
19827;BME280;10074;52.018;4.726;2022-11-15T19:04:36;46477.91;;;-144.79;100.00
19827;BME280;10074;52.018;4.726;2022-11-15T19:09:36;46467.88;;;-144.79;100.00
19827;BME280;10074;52.018;4.726;2022-11-15T19:14:37;46467.88;;;-144.79;100.00
19827;BME280;10074;52.018;4.726;2022-11-15T19:19:38;46471.91;;;-144.79;100.00
19827;BME280;10074;52.018;4.726;2022-11-15T19:24:38;46475.91;;;-144.79;100.00
19827;BME280;10074;52.018;4.726;2022-11-15T19:29:39;46467.88;;;-144.79;100.00
19827;BME280;10074;52.018;4.726;2022-11-15T19:34:40;46471.91;;;-144.79;100.00
19827;BME280;10074;52.018;4.726;2022-11-15T19:39:40;46471.91;;;-144.79;100.00
19827;BME280;10074;52.018;4.726;2022-11-15T19:44:41;46471.91;;;-144.79;100.00
19827;BME280;10074;52.018;4.726;2022-11-15T19:49:41;46467.88;;;-144.79;100.00
19827;BME280;10074;52.018;4.726;2022-11-15T19:54:42;46471.91;;;-144.79;100.00
19827;BME280;10074;52.018;4.726;2022-11-15T19:59:42;46463.88;;;-144.79;100.00
19827;BME280;10074;52.018;4.726;2022-11-15T20:04:43;46461.88;;;-144.79;100.00
19827;BME280;10074;52.018;4.726;2022-11-15T20:09:43;46471.91;;;-144.79;100.00
19827;BME280;10074;52.018;4.726;2022-11-15T20:14:43;46465.88;;;-144.79;100.00
19827;BME280;10074;52.018;4.726;2022-11-15T20:19:45;46465.88;;;-144.79;100.00
19827;BME280;10074;52.018;4.726;2022-11-15T20:24:45;46467.88;;;-144.79;100.00
19827;BME280;10074;52.018;4.726;2022-11-15T20:29:45;46469.88;;;-144.79;100.00
19827;BME280;10074;52.018;4.726;2022-11-15T20:34:50;46461.88;;;-144.79;100.00
19827;BME280;10074;52.018;4.726;2022-11-15T20:39:51;46469.88;;;-144.79;100.00
19827;BME280;10074;52.018;4.726;2022-11-15T20:44:51;46463.88;;;-144.79;100.00
19827;BME280;10074;52.018;4.726;2022-11-15T20:49:51;46467.88;;;-144.79;100.00
19827;BME280;10074;52.018;4.726;2022-11-15T20:54:52;46467.88;;;-144.79;100.00
19827;BME280;10074;52.018;4.726;2022-11-15T20:59:53;46461.88;;;-144.79;100.00
19827;BME280;10074;52.018;4.726;2022-11-15T21:04:53;46465.88;;;-144.79;100.00
19827;BME280;10074;52.018;4.726;2022-11-15T21:09:53;46465.88;;;-144.79;100.00
19827;BME280;10074;52.018;4.726;2022-11-15T21:15:12;46469.88;;;-144.79;100.00
19827;BME280;10074;52.018;4.726;2022-11-15T21:20:12;46467.88;;;-144.79;100.00
19827;BME280;10074;52.018;4.726;2022-11-15T21:25:14;46463.88;;;-144.79;100.00
19827;BME280;10074;52.018;4.726;2022-11-15T21:30:15;46465.88;;;-144.79;100.00
19827;BME280;10074;52.018;4.726;2022-11-15T21:35:15;46471.91;;;-144.79;100.00
19827;BME280;10074;52.018;4.726;2022-11-15T21:40:16;46467.88;;;-144.79;100.00
19827;BME280;10074;52.018;4.726;2022-11-15T21:45:16;46469.88;;;-144.79;100.00
19827;BME280;10074;52.018;4.726;2022-11-15T21:50:17;46467.88;;;-144.79;100.00
19827;BME280;10074;52.018;4.726;2022-11-15T21:55:17;46463.88;;;-144.79;100.00
19827;BME280;10074;52.018;4.726;2022-11-15T22:00:18;46469.88;;;-144.79;100.00
19827;BME280;10074;52.018;4.726;2022-11-15T22:05:36;46467.88;;;-144.79;100.00
19827;BME280;10074;52.018;4.726;2022-11-15T22:10:37;46471.91;;;-144.79;100.00
19827;BME280;10074;52.018;4.726;2022-11-15T22:15:37;46467.88;;;-144.79;100.00
19827;BME280;10074;52.018;4.726;2022-11-15T22:20:38;46467.88;;;-144.79;100.00
19827;BME280;10074;52.018;4.726;2022-11-15T22:25:38;46467.88;;;-144.79;100.00
19827;BME280;10074;52.018;4.726;2022-11-15T22:30:38;46471.91;;;-144.79;100.00
19827;BME280;10074;52.018;4.726;2022-11-15T22:35:40;46465.88;;;-144.79;100.00
19827;BME280;10074;52.018;4.726;2022-11-15T22:40:40;46471.91;;;-144.79;100.00
19827;BME280;10074;52.018;4.726;2022-11-15T22:50:51;46467.88;;;-144.79;100.00
19827;BME280;10074;52.018;4.726;2022-11-15T22:55:53;46471.91;;;-144.79;100.00
19827;BME280;10074;52.018;4.726;2022-11-15T23:00:56;46467.88;;;-144.79;100.00
19827;BME280;10074;52.018;4.726;2022-11-15T23:06:01;46471.91;;;-144.79;100.00
19827;BME280;10074;52.018;4.726;2022-11-15T23:11:03;46463.88;;;-144.79;100.00
19827;BME280;10074;52.018;4.726;2022-11-15T23:16:23;46467.88;;;-144.79;100.00
19827;BME280;10074;52.018;4.726;2022-11-15T23:21:44;46465.88;;;-144.79;100.00
19827;BME280;10074;52.018;4.726;2022-11-15T23:27:05;46469.88;;;-144.79;100.00
19827;BME280;10074;52.018;4.726;2022-11-15T23:32:08;46467.88;;;-144.79;100.00
19827;BME280;10074;52.018;4.726;2022-11-15T23:37:27;46467.88;;;-144.79;100.00
19827;BME280;10074;52.018;4.726;2022-11-15T23:42:28;46465.88;;;-144.79;100.00
19827;BME280;10074;52.018;4.726;2022-11-15T23:47:28;46465.88;;;-144.79;100.00
19827;BME280;10074;52.018;4.726;2022-11-15T23:52:28;46467.88;;;-144.79;100.00
19827;BME280;10074;52.018;4.726;2022-11-15T23:57:29;46465.88;;;-144.79;100.00
